sensor_id;sensor_type;location;lat;lon;timestamp;P1;durP1;ratioP1;P2;durP2;ratioP2
65751;SDS011;52486;51.098;13.770;2023-02-08T00:01:17;3.67;;;2.72;;
65751;SDS011;52486;51.098;13.770;2023-02-08T00:03:45;3.80;;;2.90;;
65751;SDS011;52486;51.098;13.770;2023-02-08T00:06:11;2.90;;;2.60;;
65751;SDS011;52486;51.098;13.770;2023-02-08T00:08:37;3.05;;;2.70;;
65751;SDS011;52486;51.098;13.770;2023-02-08T00:11:04;3.20;;;2.88;;
65751;SDS011;52486;51.098;13.770;2023-02-08T00:13:31;2.90;;;2.63;;
65751;SDS011;52486;51.098;13.770;2023-02-08T00:15:58;3.78;;;2.70;;
65751;SDS011;52486;51.098;13.770;2023-02-08T00:18:23;3.33;;;3.03;;
65751;SDS011;52486;51.098;13.770;2023-02-08T00:20:50;3.80;;;2.90;;
65751;SDS011;52486;51.098;13.770;2023-02-08T00:23:16;3.10;;;2.72;;
65751;SDS011;52486;51.098;13.770;2023-02-08T00:25:43;3.80;;;2.75;;
65751;SDS011;52486;51.098;13.770;2023-02-08T00:28:11;3.03;;;2.72;;
65751;SDS011;52486;51.098;13.770;2023-02-08T00:30:38;3.20;;;2.90;;
65751;SDS011;52486;51.098;13.770;2023-02-08T00:33:03;4.68;;;2.90;;
65751;SDS011;52486;51.098;13.770;2023-02-08T00:35:29;3.40;;;2.63;;
65751;SDS011;52486;51.098;13.770;2023-02-08T00:37:55;3.10;;;2.55;;
65751;SDS011;52486;51.098;13.770;2023-02-08T00:40:22;3.45;;;2.90;;
65751;SDS011;52486;51.098;13.770;2023-02-08T00:42:48;3.67;;;2.90;;
65751;SDS011;52486;51.098;13.770;2023-02-08T00:45:14;3.15;;;2.75;;
65751;SDS011;52486;51.098;13.770;2023-02-08T00:47:40;2.92;;;2.60;;
65751;SDS011;52486;51.098;13.770;2023-02-08T00:50:06;3.50;;;2.85;;
65751;SDS011;52486;51.098;13.770;2023-02-08T00:52:32;3.38;;;2.80;;
65751;SDS011;52486;51.098;13.770;2023-02-08T00:54:57;3.75;;;3.13;;
65751;SDS011;52486;51.098;13.770;2023-02-08T00:57:23;4.75;;;3.00;;
65751;SDS011;52486;51.098;13.770;2023-02-08T00:59:49;5.25;;;2.67;;
65751;SDS011;52486;51.098;13.770;2023-02-08T01:02:15;5.40;;;3.10;;
65751;SDS011;52486;51.098;13.770;2023-02-08T01:04:40;6.78;;;3.10;;
65751;SDS011;52486;51.098;13.770;2023-02-08T01:07:07;5.72;;;2.72;;
65751;SDS011;52486;51.098;13.770;2023-02-08T01:09:33;3.00;;;2.70;;
65751;SDS011;52486;51.098;13.770;2023-02-08T01:11:59;3.47;;;2.60;;
65751;SDS011;52486;51.098;13.770;2023-02-08T01:14:25;5.05;;;3.10;;
65751;SDS011;52486;51.098;13.770;2023-02-08T01:16:51;3.40;;;2.90;;
65751;SDS011;52486;51.098;13.770;2023-02-08T01:19:17;3.60;;;2.97;;
65751;SDS011;52486;51.098;13.770;2023-02-08T01:21:43;3.42;;;2.90;;
65751;SDS011;52486;51.098;13.770;2023-02-08T01:24:10;3.60;;;3.13;;
65751;SDS011;52486;51.098;13.770;2023-02-08T01:26:36;4.32;;;3.10;;
65751;SDS011;52486;51.098;13.770;2023-02-08T01:29:02;3.50;;;3.00;;
65751;SDS011;52486;51.098;13.770;2023-02-08T01:31:29;2.92;;;2.63;;
65751;SDS011;52486;51.098;13.770;2023-02-08T01:33:57;3.80;;;2.90;;
65751;SDS011;52486;51.098;13.770;2023-02-08T01:36:24;7.63;;;2.80;;
65751;SDS011;52486;51.098;13.770;2023-02-08T01:38:51;3.15;;;2.85;;
65751;SDS011;52486;51.098;13.770;2023-02-08T01:41:18;5.10;;;3.08;;
65751;SDS011;52486;51.098;13.770;2023-02-08T01:44:05;4.10;;;2.83;;
65751;SDS011;52486;51.098;13.770;2023-02-08T01:46:36;3.17;;;2.88;;
65751;SDS011;52486;51.098;13.770;2023-02-08T01:49:16;3.08;;;2.78;;
65751;SDS011;52486;51.098;13.770;2023-02-08T01:52:09;2.78;;;2.47;;
65751;SDS011;52486;51.098;13.770;2023-02-08T01:54:47;2.92;;;2.65;;
65751;SDS011;52486;51.098;13.770;2023-02-08T01:57:20;2.88;;;2.58;;
65751;SDS011;52486;51.098;13.770;2023-02-08T01:59:52;2.67;;;2.47;;
65751;SDS011;52486;51.098;13.770;2023-02-08T02:02:21;2.80;;;2.50;;
65751;SDS011;52486;51.098;13.770;2023-02-08T02:04:47;3.30;;;2.50;;
65751;SDS011;52486;51.098;13.770;2023-02-08T02:07:15;3.08;;;2.78;;
65751;SDS011;52486;51.098;13.770;2023-02-08T02:12:38;3.42;;;2.80;;
65751;SDS011;52486;51.098;13.770;2023-02-08T02:15:06;2.95;;;2.65;;
65751;SDS011;52486;51.098;13.770;2023-02-08T02:17:32;3.42;;;3.10;;
65751;SDS011;52486;51.098;13.770;2023-02-08T02:50:39;3.60;;;3.28;;
65751;SDS011;52486;51.098;13.770;2023-02-08T02:53:20;3.35;;;2.58;;
65751;SDS011;52486;51.098;13.770;2023-02-08T02:56:20;3.33;;;2.65;;
65751;SDS011;52486;51.098;13.770;2023-02-08T02:58:46;3.40;;;2.78;;
65751;SDS011;52486;51.098;13.770;2023-02-08T03:01:12;4.38;;;2.63;;
65751;SDS011;52486;51.098;13.770;2023-02-08T03:03:44;2.92;;;2.63;;
65751;SDS011;52486;51.098;13.770;2023-02-08T03:06:12;3.95;;;2.63;;
65751;SDS011;52486;51.098;13.770;2023-02-08T03:11:31;4.68;;;2.90;;
65751;SDS011;52486;51.098;13.770;2023-02-08T03:16:43;4.43;;;2.80;;
65751;SDS011;52486;51.098;13.770;2023-02-08T03:19:38;2.85;;;2.60;;
65751;SDS011;52486;51.098;13.770;2023-02-08T03:27:34;3.10;;;2.72;;
65751;SDS011;52486;51.098;13.770;2023-02-08T03:32:43;3.22;;;2.92;;
65751;SDS011;52486;51.098;13.770;2023-02-08T03:35:24;3.58;;;2.85;;
65751;SDS011;52486;51.098;13.770;2023-02-08T03:37:57;2.60;;;2.40;;
65751;SDS011;52486;51.098;13.770;2023-02-08T03:40:51;3.55;;;2.80;;
65751;SDS011;52486;51.098;13.770;2023-02-08T03:43:29;3.50;;;2.85;;
65751;SDS011;52486;51.098;13.770;2023-02-08T03:46:21;3.78;;;2.65;;
65751;SDS011;52486;51.098;13.770;2023-02-08T03:49:05;3.13;;;2.60;;
65751;SDS011;52486;51.098;13.770;2023-02-08T03:51:34;3.00;;;2.70;;
65751;SDS011;52486;51.098;13.770;2023-02-08T03:54:03;3.53;;;3.00;;
65751;SDS011;52486;51.098;13.770;2023-02-08T03:59:03;3.50;;;2.67;;
65751;SDS011;52486;51.098;13.770;2023-02-08T04:04:11;3.08;;;2.70;;
65751;SDS011;52486;51.098;13.770;2023-02-08T04:06:38;3.05;;;2.53;;
65751;SDS011;52486;51.098;13.770;2023-02-08T04:09:04;3.25;;;2.50;;
65751;SDS011;52486;51.098;13.770;2023-02-08T04:11:29;2.80;;;2.60;;
65751;SDS011;52486;51.098;13.770;2023-02-08T04:13:55;4.97;;;2.95;;
65751;SDS011;52486;51.098;13.770;2023-02-08T04:16:21;2.80;;;2.50;;
65751;SDS011;52486;51.098;13.770;2023-02-08T04:18:47;3.22;;;2.92;;
65751;SDS011;52486;51.098;13.770;2023-02-08T04:21:13;3.13;;;2.83;;
65751;SDS011;52486;51.098;13.770;2023-02-08T04:23:39;3.25;;;2.95;;
65751;SDS011;52486;51.098;13.770;2023-02-08T04:26:05;5.05;;;2.80;;
65751;SDS011;52486;51.098;13.770;2023-02-08T04:28:33;3.75;;;3.03;;
65751;SDS011;52486;51.098;13.770;2023-02-08T04:30:59;4.43;;;3.45;;
65751;SDS011;52486;51.098;13.770;2023-02-08T04:33:24;4.30;;;2.65;;
65751;SDS011;52486;51.098;13.770;2023-02-08T04:35:50;2.97;;;2.70;;
65751;SDS011;52486;51.098;13.770;2023-02-08T04:38:17;3.20;;;2.90;;
65751;SDS011;52486;51.098;13.770;2023-02-08T04:40:43;3.38;;;2.72;;
65751;SDS011;52486;51.098;13.770;2023-02-08T04:43:08;3.05;;;2.75;;
65751;SDS011;52486;51.098;13.770;2023-02-08T04:45:34;2.70;;;2.50;;
65751;SDS011;52486;51.098;13.770;2023-02-08T04:48:00;3.50;;;2.53;;
65751;SDS011;52486;51.098;13.770;2023-02-08T04:50:28;3.03;;;2.63;;
65751;SDS011;52486;51.098;13.770;2023-02-08T04:52:54;3.17;;;2.88;;
65751;SDS011;52486;51.098;13.770;2023-02-08T04:55:20;3.65;;;2.78;;
65751;SDS011;52486;51.098;13.770;2023-02-08T04:57:46;4.78;;;2.92;;
65751;SDS011;52486;51.098;13.770;2023-02-08T05:00:12;3.25;;;2.90;;
65751;SDS011;52486;51.098;13.770;2023-02-08T05:02:38;4.75;;;3.13;;
65751;SDS011;52486;51.098;13.770;2023-02-08T05:05:03;4.00;;;3.00;;
65751;SDS011;52486;51.098;13.770;2023-02-08T05:07:30;4.15;;;2.53;;
65751;SDS011;52486;51.098;13.770;2023-02-08T05:09:55;3.35;;;2.95;;
65751;SDS011;52486;51.098;13.770;2023-02-08T05:12:21;3.40;;;2.70;;
65751;SDS011;52486;51.098;13.770;2023-02-08T05:14:47;3.63;;;2.88;;
65751;SDS011;52486;51.098;13.770;2023-02-08T05:17:13;3.35;;;2.63;;
65751;SDS011;52486;51.098;13.770;2023-02-08T05:19:39;4.82;;;2.92;;
65751;SDS011;52486;51.098;13.770;2023-02-08T05:22:04;3.65;;;3.00;;
65751;SDS011;52486;51.098;13.770;2023-02-08T05:24:30;4.90;;;2.90;;
65751;SDS011;52486;51.098;13.770;2023-02-08T05:26:56;4.15;;;2.70;;
65751;SDS011;52486;51.098;13.770;2023-02-08T05:29:22;4.13;;;2.70;;
65751;SDS011;52486;51.098;13.770;2023-02-08T05:31:48;3.38;;;2.50;;
65751;SDS011;52486;51.098;13.770;2023-02-08T05:34:14;5.00;;;2.95;;
65751;SDS011;52486;51.098;13.770;2023-02-08T05:36:39;3.45;;;2.92;;
65751;SDS011;52486;51.098;13.770;2023-02-08T05:39:05;2.97;;;2.67;;
65751;SDS011;52486;51.098;13.770;2023-02-08T05:41:31;3.40;;;2.70;;
65751;SDS011;52486;51.098;13.770;2023-02-08T05:43:57;5.00;;;3.00;;
65751;SDS011;52486;51.098;13.770;2023-02-08T05:46:22;5.68;;;3.13;;
65751;SDS011;52486;51.098;13.770;2023-02-08T05:48:48;3.65;;;2.78;;
65751;SDS011;52486;51.098;13.770;2023-02-08T05:51:14;3.45;;;2.65;;
65751;SDS011;52486;51.098;13.770;2023-02-08T05:53:40;3.85;;;3.00;;
65751;SDS011;52486;51.098;13.770;2023-02-08T05:56:07;6.28;;;2.97;;
65751;SDS011;52486;51.098;13.770;2023-02-08T05:58:33;3.40;;;3.10;;
65751;SDS011;52486;51.098;13.770;2023-02-08T06:00:59;3.05;;;2.50;;
65751;SDS011;52486;51.098;13.770;2023-02-08T06:03:25;4.18;;;2.97;;
65751;SDS011;52486;51.098;13.770;2023-02-08T06:05:51;4.43;;;3.25;;
65751;SDS011;52486;51.098;13.770;2023-02-08T06:08:17;3.38;;;2.80;;
65751;SDS011;52486;51.098;13.770;2023-02-08T06:10:42;12.52;;;8.60;;
65751;SDS011;52486;51.098;13.770;2023-02-08T06:13:09;20.13;;;10.15;;
65751;SDS011;52486;51.098;13.770;2023-02-08T06:15:35;17.05;;;10.35;;
65751;SDS011;52486;51.098;13.770;2023-02-08T06:18:01;18.75;;;11.00;;
65751;SDS011;52486;51.098;13.770;2023-02-08T06:20:27;19.55;;;10.98;;
65751;SDS011;52486;51.098;13.770;2023-02-08T06:22:53;18.58;;;11.55;;
65751;SDS011;52486;51.098;13.770;2023-02-08T06:25:20;19.73;;;12.05;;
65751;SDS011;52486;51.098;13.770;2023-02-08T06:27:46;17.33;;;11.27;;
65751;SDS011;52486;51.098;13.770;2023-02-08T06:30:12;22.55;;;13.32;;
65751;SDS011;52486;51.098;13.770;2023-02-08T06:32:38;22.35;;;13.75;;
65751;SDS011;52486;51.098;13.770;2023-02-08T06:35:03;21.65;;;12.95;;
65751;SDS011;52486;51.098;13.770;2023-02-08T06:37:29;21.25;;;12.18;;
65751;SDS011;52486;51.098;13.770;2023-02-08T06:39:55;21.23;;;12.32;;
65751;SDS011;52486;51.098;13.770;2023-02-08T06:42:21;22.38;;;12.43;;
65751;SDS011;52486;51.098;13.770;2023-02-08T06:44:47;22.73;;;13.68;;
65751;SDS011;52486;51.098;13.770;2023-02-08T06:47:14;20.65;;;13.07;;
65751;SDS011;52486;51.098;13.770;2023-02-08T06:49:40;20.33;;;12.95;;
65751;SDS011;52486;51.098;13.770;2023-02-08T06:52:06;25.83;;;12.60;;
65751;SDS011;52486;51.098;13.770;2023-02-08T06:54:32;17.02;;;10.00;;
65751;SDS011;52486;51.098;13.770;2023-02-08T06:56:58;17.58;;;9.82;;
65751;SDS011;52486;51.098;13.770;2023-02-08T06:59:24;14.13;;;9.20;;
65751;SDS011;52486;51.098;13.770;2023-02-08T07:01:50;13.48;;;9.23;;
65751;SDS011;52486;51.098;13.770;2023-02-08T07:04:15;13.18;;;8.70;;
65751;SDS011;52486;51.098;13.770;2023-02-08T07:06:41;16.23;;;8.82;;
65751;SDS011;52486;51.098;13.770;2023-02-08T07:09:08;11.93;;;8.35;;
65751;SDS011;52486;51.098;13.770;2023-02-08T07:11:33;11.73;;;8.50;;
65751;SDS011;52486;51.098;13.770;2023-02-08T07:13:59;12.90;;;8.82;;
65751;SDS011;52486;51.098;13.770;2023-02-08T07:16:25;12.27;;;8.13;;
65751;SDS011;52486;51.098;13.770;2023-02-08T07:18:50;13.75;;;8.18;;
65751;SDS011;52486;51.098;13.770;2023-02-08T07:21:17;17.30;;;8.50;;
65751;SDS011;52486;51.098;13.770;2023-02-08T07:23:42;14.68;;;8.25;;
65751;SDS011;52486;51.098;13.770;2023-02-08T07:26:09;12.05;;;7.78;;
65751;SDS011;52486;51.098;13.770;2023-02-08T07:28:36;11.63;;;7.65;;
65751;SDS011;52486;51.098;13.770;2023-02-08T07:31:06;20.40;;;8.05;;
65751;SDS011;52486;51.098;13.770;2023-02-08T07:33:33;12.20;;;7.43;;
65751;SDS011;52486;51.098;13.770;2023-02-08T07:35:59;13.25;;;7.43;;
65751;SDS011;52486;51.098;13.770;2023-02-08T07:38:25;15.38;;;7.55;;
65751;SDS011;52486;51.098;13.770;2023-02-08T07:40:51;14.80;;;9.18;;
65751;SDS011;52486;51.098;13.770;2023-02-08T07:43:23;10.82;;;7.00;;
65751;SDS011;52486;51.098;13.770;2023-02-08T07:45:49;12.98;;;7.35;;
65751;SDS011;52486;51.098;13.770;2023-02-08T07:48:15;11.25;;;6.85;;
65751;SDS011;52486;51.098;13.770;2023-02-08T07:50:41;10.20;;;6.90;;
65751;SDS011;52486;51.098;13.770;2023-02-08T07:53:07;11.70;;;6.85;;
65751;SDS011;52486;51.098;13.770;2023-02-08T07:55:33;10.40;;;6.47;;
65751;SDS011;52486;51.098;13.770;2023-02-08T07:57:59;13.98;;;6.60;;
65751;SDS011;52486;51.098;13.770;2023-02-08T08:00:24;11.07;;;7.03;;
65751;SDS011;52486;51.098;13.770;2023-02-08T08:02:51;10.38;;;6.82;;
65751;SDS011;52486;51.098;13.770;2023-02-08T08:05:17;14.45;;;6.40;;
65751;SDS011;52486;51.098;13.770;2023-02-08T08:07:42;11.18;;;6.10;;
65751;SDS011;52486;51.098;13.770;2023-02-08T08:10:09;8.95;;;6.38;;
65751;SDS011;52486;51.098;13.770;2023-02-08T08:12:35;8.40;;;6.32;;
65751;SDS011;52486;51.098;13.770;2023-02-08T08:15:01;11.15;;;6.13;;
65751;SDS011;52486;51.098;13.770;2023-02-08T08:17:27;9.85;;;6.00;;
65751;SDS011;52486;51.098;13.770;2023-02-08T08:19:53;13.57;;;5.95;;
65751;SDS011;52486;51.098;13.770;2023-02-08T08:22:19;8.38;;;5.90;;
65751;SDS011;52486;51.098;13.770;2023-02-08T08:24:44;9.38;;;6.85;;
65751;SDS011;52486;51.098;13.770;2023-02-08T08:27:10;12.13;;;6.20;;
65751;SDS011;52486;51.098;13.770;2023-02-08T08:29:36;11.02;;;6.40;;
65751;SDS011;52486;51.098;13.770;2023-02-08T08:32:02;10.63;;;6.50;;
65751;SDS011;52486;51.098;13.770;2023-02-08T08:34:29;10.93;;;6.07;;
65751;SDS011;52486;51.098;13.770;2023-02-08T08:36:56;14.35;;;6.45;;
65751;SDS011;52486;51.098;13.770;2023-02-08T08:39:22;9.48;;;5.95;;
65751;SDS011;52486;51.098;13.770;2023-02-08T08:41:48;11.32;;;6.50;;
65751;SDS011;52486;51.098;13.770;2023-02-08T08:44:14;9.80;;;6.07;;
65751;SDS011;52486;51.098;13.770;2023-02-08T08:46:40;13.70;;;6.03;;
65751;SDS011;52486;51.098;13.770;2023-02-08T08:49:06;12.35;;;6.53;;
65751;SDS011;52486;51.098;13.770;2023-02-08T08:51:33;8.48;;;5.70;;
65751;SDS011;52486;51.098;13.770;2023-02-08T08:54:02;11.85;;;5.93;;
65751;SDS011;52486;51.098;13.770;2023-02-08T08:56:30;9.27;;;6.57;;
65751;SDS011;52486;51.098;13.770;2023-02-08T08:58:56;9.45;;;6.05;;
65751;SDS011;52486;51.098;13.770;2023-02-08T09:01:21;11.07;;;6.43;;
65751;SDS011;52486;51.098;13.770;2023-02-08T09:03:47;9.65;;;5.68;;
65751;SDS011;52486;51.098;13.770;2023-02-08T09:06:13;14.60;;;6.22;;
65751;SDS011;52486;51.098;13.770;2023-02-08T09:08:39;14.50;;;5.85;;
65751;SDS011;52486;51.098;13.770;2023-02-08T09:11:06;13.77;;;6.30;;
65751;SDS011;52486;51.098;13.770;2023-02-08T09:13:33;9.38;;;5.63;;
65751;SDS011;52486;51.098;13.770;2023-02-08T09:16:03;12.70;;;5.88;;
65751;SDS011;52486;51.098;13.770;2023-02-08T09:18:33;10.63;;;5.78;;
65751;SDS011;52486;51.098;13.770;2023-02-08T09:21:04;8.68;;;5.72;;
65751;SDS011;52486;51.098;13.770;2023-02-08T09:23:34;10.25;;;6.13;;
65751;SDS011;52486;51.098;13.770;2023-02-08T09:26:04;17.75;;;6.35;;
65751;SDS011;52486;51.098;13.770;2023-02-08T09:28:31;10.63;;;5.93;;
65751;SDS011;52486;51.098;13.770;2023-02-08T09:30:58;11.75;;;5.65;;
65751;SDS011;52486;51.098;13.770;2023-02-08T09:33:26;10.30;;;5.85;;
65751;SDS011;52486;51.098;13.770;2023-02-08T09:35:52;8.85;;;6.43;;
65751;SDS011;52486;51.098;13.770;2023-02-08T09:38:18;10.80;;;6.50;;
65751;SDS011;52486;51.098;13.770;2023-02-08T09:40:57;8.70;;;6.28;;
65751;SDS011;52486;51.098;13.770;2023-02-08T09:46:24;10.00;;;6.65;;
65751;SDS011;52486;51.098;13.770;2023-02-08T09:48:54;10.05;;;6.30;;
65751;SDS011;52486;51.098;13.770;2023-02-08T09:51:32;11.63;;;6.82;;
65751;SDS011;52486;51.098;13.770;2023-02-08T09:54:06;13.05;;;6.57;;
65751;SDS011;52486;51.098;13.770;2023-02-08T09:56:39;12.95;;;5.85;;
65751;SDS011;52486;51.098;13.770;2023-02-08T09:59:18;9.07;;;6.55;;
65751;SDS011;52486;51.098;13.770;2023-02-08T10:01:48;8.50;;;5.50;;
65751;SDS011;52486;51.098;13.770;2023-02-08T10:04:27;17.02;;;6.05;;
65751;SDS011;52486;51.098;13.770;2023-02-08T10:07:01;10.38;;;6.03;;
65751;SDS011;52486;51.098;13.770;2023-02-08T10:09:27;14.80;;;5.95;;
65751;SDS011;52486;51.098;13.770;2023-02-08T10:24:27;11.77;;;5.80;;
65751;SDS011;52486;51.098;13.770;2023-02-08T10:27:05;14.23;;;6.13;;
65751;SDS011;52486;51.098;13.770;2023-02-08T10:29:47;12.10;;;5.30;;
65751;SDS011;52486;51.098;13.770;2023-02-08T10:35:26;9.85;;;5.80;;
65751;SDS011;52486;51.098;13.770;2023-02-08T10:38:02;10.95;;;5.60;;
65751;SDS011;52486;51.098;13.770;2023-02-08T10:40:46;8.77;;;5.63;;
65751;SDS011;52486;51.098;13.770;2023-02-08T10:49:15;9.57;;;5.32;;
65751;SDS011;52486;51.098;13.770;2023-02-08T10:51:49;11.35;;;5.55;;
65751;SDS011;52486;51.098;13.770;2023-02-08T10:54:15;9.57;;;6.72;;
65751;SDS011;52486;51.098;13.770;2023-02-08T10:56:54;11.48;;;6.25;;
65751;SDS011;52486;51.098;13.770;2023-02-08T11:02:23;8.68;;;5.45;;
65751;SDS011;52486;51.098;13.770;2023-02-08T11:05:07;10.48;;;5.97;;
65751;SDS011;52486;51.098;13.770;2023-02-08T11:07:36;8.63;;;5.60;;
65751;SDS011;52486;51.098;13.770;2023-02-08T11:12:59;10.13;;;6.07;;
65751;SDS011;52486;51.098;13.770;2023-02-08T11:15:37;11.48;;;5.80;;
65751;SDS011;52486;51.098;13.770;2023-02-08T11:18:22;10.95;;;5.45;;
65751;SDS011;52486;51.098;13.770;2023-02-08T11:21:03;12.63;;;5.20;;
65751;SDS011;52486;51.098;13.770;2023-02-08T11:23:33;21.27;;;5.60;;
65751;SDS011;52486;51.098;13.770;2023-02-08T11:26:15;8.97;;;5.47;;
65751;SDS011;52486;51.098;13.770;2023-02-08T11:28:57;14.70;;;5.75;;
65751;SDS011;52486;51.098;13.770;2023-02-08T11:31:38;9.45;;;5.70;;
65751;SDS011;52486;51.098;13.770;2023-02-08T11:34:11;11.38;;;5.22;;
65751;SDS011;52486;51.098;13.770;2023-02-08T11:36:42;9.90;;;5.70;;
65751;SDS011;52486;51.098;13.770;2023-02-08T11:39:16;10.73;;;5.70;;
65751;SDS011;52486;51.098;13.770;2023-02-08T11:41:48;11.95;;;5.80;;
65751;SDS011;52486;51.098;13.770;2023-02-08T11:45:03;9.77;;;5.27;;
65751;SDS011;52486;51.098;13.770;2023-02-08T11:47:07;12.50;;;5.40;;
65751;SDS011;52486;51.098;13.770;2023-02-08T11:49:39;8.27;;;5.20;;
65751;SDS011;52486;51.098;13.770;2023-02-08T11:52:17;12.18;;;5.32;;
65751;SDS011;52486;51.098;13.770;2023-02-08T11:54:49;8.88;;;5.35;;
65751;SDS011;52486;51.098;13.770;2023-02-08T11:57:20;10.18;;;5.07;;
65751;SDS011;52486;51.098;13.770;2023-02-08T11:59:48;5.75;;;4.60;;
65751;SDS011;52486;51.098;13.770;2023-02-08T12:02:24;10.02;;;5.13;;
65751;SDS011;52486;51.098;13.770;2023-02-08T12:04:51;11.05;;;4.80;;
65751;SDS011;52486;51.098;13.770;2023-02-08T12:07:19;9.73;;;4.78;;
65751;SDS011;52486;51.098;13.770;2023-02-08T12:20:47;6.93;;;4.40;;
65751;SDS011;52486;51.098;13.770;2023-02-08T12:23:31;9.13;;;4.15;;
65751;SDS011;52486;51.098;13.770;2023-02-08T12:26:16;6.90;;;4.03;;
65751;SDS011;52486;51.098;13.770;2023-02-08T12:31:36;14.38;;;9.50;;
65751;SDS011;52486;51.098;13.770;2023-02-08T12:34:12;16.98;;;9.85;;
65751;SDS011;52486;51.098;13.770;2023-02-08T12:44:31;16.45;;;10.48;;
65751;SDS011;52486;51.098;13.770;2023-02-08T12:47:19;15.07;;;10.23;;
65751;SDS011;52486;51.098;13.770;2023-02-08T12:52:42;15.70;;;10.48;;
65751;SDS011;52486;51.098;13.770;2023-02-08T12:57:56;17.98;;;10.13;;
65751;SDS011;52486;51.098;13.770;2023-02-08T13:00:46;16.70;;;9.02;;
65751;SDS011;52486;51.098;13.770;2023-02-08T13:04:16;15.43;;;8.85;;
65751;SDS011;52486;51.098;13.770;2023-02-08T13:06:59;12.60;;;7.63;;
65751;SDS011;52486;51.098;13.770;2023-02-08T13:09:19;14.30;;;7.78;;
65751;SDS011;52486;51.098;13.770;2023-02-08T13:12:50;18.10;;;8.35;;
65751;SDS011;52486;51.098;13.770;2023-02-08T13:15:24;13.38;;;7.90;;
65751;SDS011;52486;51.098;13.770;2023-02-08T13:18:17;15.85;;;7.90;;
65751;SDS011;52486;51.098;13.770;2023-02-08T13:20:51;10.70;;;7.45;;
65751;SDS011;52486;51.098;13.770;2023-02-08T13:25:47;13.20;;;7.55;;
65751;SDS011;52486;51.098;13.770;2023-02-08T13:28:17;12.82;;;7.72;;
65751;SDS011;52486;51.098;13.770;2023-02-08T13:31:13;9.85;;;7.10;;
65751;SDS011;52486;51.098;13.770;2023-02-08T13:34:06;10.63;;;6.20;;
65751;SDS011;52486;51.098;13.770;2023-02-08T13:36:51;11.15;;;6.75;;
65751;SDS011;52486;51.098;13.770;2023-02-08T13:39:38;15.50;;;7.65;;
65751;SDS011;52486;51.098;13.770;2023-02-08T13:42:07;12.43;;;7.88;;
65751;SDS011;52486;51.098;13.770;2023-02-08T13:44:47;11.65;;;8.30;;
65751;SDS011;52486;51.098;13.770;2023-02-08T13:47:26;17.50;;;9.10;;
65751;SDS011;52486;51.098;13.770;2023-02-08T13:58:04;12.75;;;9.07;;
65751;SDS011;52486;51.098;13.770;2023-02-08T14:01:17;14.75;;;9.23;;
65751;SDS011;52486;51.098;13.770;2023-02-08T14:06:33;14.15;;;9.25;;
65751;SDS011;52486;51.098;13.770;2023-02-08T14:11:55;15.55;;;7.68;;
65751;SDS011;52486;51.098;13.770;2023-02-08T14:14:37;12.63;;;7.25;;
65751;SDS011;52486;51.098;13.770;2023-02-08T14:19:29;17.00;;;7.05;;
65751;SDS011;52486;51.098;13.770;2023-02-08T14:24:48;11.02;;;6.93;;
65751;SDS011;52486;51.098;13.770;2023-02-08T14:27:42;11.77;;;6.85;;
65751;SDS011;52486;51.098;13.770;2023-02-08T14:30:20;11.90;;;6.75;;
65751;SDS011;52486;51.098;13.770;2023-02-08T14:32:50;10.77;;;6.68;;
65751;SDS011;52486;51.098;13.770;2023-02-08T14:35:49;10.25;;;5.78;;
65751;SDS011;52486;51.098;13.770;2023-02-08T14:40:58;14.20;;;6.10;;
65751;SDS011;52486;51.098;13.770;2023-02-08T14:43:36;13.50;;;5.88;;
65751;SDS011;52486;51.098;13.770;2023-02-08T14:49:00;9.18;;;5.78;;
65751;SDS011;52486;51.098;13.770;2023-02-08T14:51:33;8.57;;;5.70;;
65751;SDS011;52486;51.098;13.770;2023-02-08T14:57:09;10.00;;;5.68;;
65751;SDS011;52486;51.098;13.770;2023-02-08T14:59:50;9.90;;;5.80;;
65751;SDS011;52486;51.098;13.770;2023-02-08T15:02:21;13.02;;;5.43;;
65751;SDS011;52486;51.098;13.770;2023-02-08T15:04:59;9.10;;;5.35;;
65751;SDS011;52486;51.098;13.770;2023-02-08T15:07:45;13.20;;;6.03;;
65751;SDS011;52486;51.098;13.770;2023-02-08T15:10:24;12.13;;;7.13;;
65751;SDS011;52486;51.098;13.770;2023-02-08T15:13:04;12.82;;;7.47;;
65751;SDS011;52486;51.098;13.770;2023-02-08T15:15:33;16.13;;;7.95;;
65751;SDS011;52486;51.098;13.770;2023-02-08T15:18:14;17.38;;;8.50;;
65751;SDS011;52486;51.098;13.770;2023-02-08T15:21:03;13.57;;;7.70;;
65751;SDS011;52486;51.098;13.770;2023-02-08T15:23:30;14.45;;;7.43;;
65751;SDS011;52486;51.098;13.770;2023-02-08T15:26:13;13.45;;;7.10;;
65751;SDS011;52486;51.098;13.770;2023-02-08T15:28:56;12.38;;;6.57;;
65751;SDS011;52486;51.098;13.770;2023-02-08T15:31:28;15.00;;;7.05;;
65751;SDS011;52486;51.098;13.770;2023-02-08T15:33:56;15.40;;;6.63;;
65751;SDS011;52486;51.098;13.770;2023-02-08T15:36:31;8.75;;;6.15;;
65751;SDS011;52486;51.098;13.770;2023-02-08T15:39:00;11.00;;;6.15;;
65751;SDS011;52486;51.098;13.770;2023-02-08T15:41:33;11.20;;;6.60;;
65751;SDS011;52486;51.098;13.770;2023-02-08T15:44:00;16.25;;;6.38;;
65751;SDS011;52486;51.098;13.770;2023-02-08T15:46:27;17.17;;;6.43;;
65751;SDS011;52486;51.098;13.770;2023-02-08T15:48:53;14.85;;;6.25;;
65751;SDS011;52486;51.098;13.770;2023-02-08T15:51:21;11.23;;;6.22;;
65751;SDS011;52486;51.098;13.770;2023-02-08T15:53:49;8.60;;;5.82;;
65751;SDS011;52486;51.098;13.770;2023-02-08T15:56:33;10.50;;;6.65;;
65751;SDS011;52486;51.098;13.770;2023-02-08T15:59:01;9.18;;;6.00;;
65751;SDS011;52486;51.098;13.770;2023-02-08T16:01:28;11.60;;;6.35;;
65751;SDS011;52486;51.098;13.770;2023-02-08T16:03:56;16.52;;;6.53;;
65751;SDS011;52486;51.098;13.770;2023-02-08T16:06:28;10.35;;;6.20;;
65751;SDS011;52486;51.098;13.770;2023-02-08T16:08:57;11.52;;;6.35;;
65751;SDS011;52486;51.098;13.770;2023-02-08T16:11:26;9.45;;;5.38;;
65751;SDS011;52486;51.098;13.770;2023-02-08T16:13:58;10.50;;;6.07;;
65751;SDS011;52486;51.098;13.770;2023-02-08T16:21:43;13.38;;;6.22;;
65751;SDS011;52486;51.098;13.770;2023-02-08T16:26:41;12.63;;;5.72;;
65751;SDS011;52486;51.098;13.770;2023-02-08T16:29:28;12.55;;;5.63;;
65751;SDS011;52486;51.098;13.770;2023-02-08T16:34:56;16.83;;;6.65;;
65751;SDS011;52486;51.098;13.770;2023-02-08T16:37:27;11.80;;;5.60;;
65751;SDS011;52486;51.098;13.770;2023-02-08T16:42:28;13.25;;;5.05;;
65751;SDS011;52486;51.098;13.770;2023-02-08T16:47:47;7.78;;;5.72;;
65751;SDS011;52486;51.098;13.770;2023-02-08T16:50:15;13.00;;;5.05;;
65751;SDS011;52486;51.098;13.770;2023-02-08T16:52:52;7.20;;;4.93;;
65751;SDS011;52486;51.098;13.770;2023-02-08T16:55:26;9.02;;;5.13;;
65751;SDS011;52486;51.098;13.770;2023-02-08T16:57:55;7.88;;;5.28;;
65751;SDS011;52486;51.098;13.770;2023-02-08T17:02:50;11.85;;;5.18;;
65751;SDS011;52486;51.098;13.770;2023-02-08T17:05:16;8.40;;;5.47;;
65751;SDS011;52486;51.098;13.770;2023-02-08T17:07:43;12.30;;;5.43;;
65751;SDS011;52486;51.098;13.770;2023-02-08T17:10:19;8.73;;;4.95;;
65751;SDS011;52486;51.098;13.770;2023-02-08T17:12:50;9.60;;;4.82;;
65751;SDS011;52486;51.098;13.770;2023-02-08T17:15:16;11.15;;;4.57;;
65751;SDS011;52486;51.098;13.770;2023-02-08T17:17:42;7.65;;;4.72;;
65751;SDS011;52486;51.098;13.770;2023-02-08T17:20:21;8.85;;;5.43;;
65751;SDS011;52486;51.098;13.770;2023-02-08T17:22:49;8.65;;;5.32;;
65751;SDS011;52486;51.098;13.770;2023-02-08T17:25:16;7.72;;;4.97;;
65751;SDS011;52486;51.098;13.770;2023-02-08T17:27:49;8.50;;;4.75;;